createdAt,value
2018-09-27T00:01:21.215Z,14.80
2018-09-27T00:03:49.151Z,14.80
2018-09-27T00:06:17.184Z,14.80
2018-09-27T00:08:44.851Z,14.80
2018-09-27T00:11:12.626Z,14.80
2018-09-27T00:13:40.493Z,14.80
2018-09-27T00:16:08.593Z,14.80
2018-09-27T00:18:36.306Z,14.90
2018-09-27T00:21:04.055Z,14.90
2018-09-27T00:23:31.920Z,14.90
2018-09-27T00:25:59.634Z,14.90
2018-09-27T00:28:27.315Z,15.00
2018-09-27T00:30:55.149Z,15.00
2018-09-27T00:33:22.808Z,15.00
2018-09-27T00:35:50.639Z,15.10
2018-09-27T00:38:20.383Z,15.00
2018-09-27T00:40:48.295Z,15.00
2018-09-27T00:43:15.945Z,15.10
2018-09-27T00:45:44.089Z,15.10
2018-09-27T00:48:14.240Z,15.10
2018-09-27T00:50:42.059Z,15.20
2018-09-27T00:53:09.840Z,15.20
2018-09-27T00:55:37.778Z,15.20
2018-09-27T00:58:05.861Z,15.20
2018-09-27T01:00:33.517Z,15.20
2018-09-27T01:03:01.224Z,15.20
2018-09-27T01:05:28.836Z,15.30
2018-09-27T01:07:56.438Z,15.30
2018-09-27T01:10:24.054Z,15.20
2018-09-27T01:12:51.748Z,15.30
2018-09-27T01:15:20.223Z,15.30
2018-09-27T01:17:47.816Z,15.30
2018-09-27T01:20:15.696Z,15.40
2018-09-27T01:22:43.476Z,15.40
2018-09-27T01:25:11.501Z,15.40
2018-09-27T01:27:39.326Z,15.40
2018-09-27T01:30:07.572Z,15.30
2018-09-27T01:32:35.244Z,15.40
2018-09-27T01:35:02.919Z,15.30
2018-09-27T01:37:32.084Z,15.30
2018-09-27T01:39:59.844Z,15.30
2018-09-27T01:42:27.509Z,15.20
2018-09-27T01:44:55.176Z,15.20
2018-09-27T01:47:22.801Z,15.20
2018-09-27T01:49:51.756Z,15.10
2018-09-27T01:52:19.524Z,15.10
2018-09-27T01:54:47.226Z,15.10
2018-09-27T01:57:14.833Z,15.20
2018-09-27T01:59:42.659Z,15.20
2018-09-27T02:02:11.194Z,15.10
2018-09-27T02:04:38.894Z,15.10
2018-09-27T02:07:07.044Z,15.10
2018-09-27T02:09:34.709Z,15.00
2018-09-27T02:12:02.448Z,15.00
2018-09-27T02:14:30.166Z,15.10
2018-09-27T02:16:57.854Z,15.00
2018-09-27T02:19:25.568Z,15.00
2018-09-27T02:21:53.486Z,15.00
2018-09-27T02:24:21.085Z,15.00
2018-09-27T02:26:49.027Z,15.00
2018-09-27T02:29:16.786Z,15.00
2018-09-27T02:31:45.066Z,15.10
2018-09-27T02:34:12.780Z,15.10
2018-09-27T02:36:40.941Z,15.20
2018-09-27T02:39:10.103Z,15.10
2018-09-27T02:41:38.612Z,15.10
2018-09-27T02:44:06.902Z,15.20
2018-09-27T02:46:35.642Z,15.10
2018-09-27T02:49:03.954Z,15.20
2018-09-27T02:51:31.925Z,15.30
2018-09-27T02:53:59.709Z,15.30
2018-09-27T02:56:27.446Z,15.30
2018-09-27T02:58:55.138Z,15.20
2018-09-27T03:01:23.040Z,15.20
2018-09-27T03:03:51.087Z,15.20
2018-09-27T03:06:18.845Z,15.20
2018-09-27T03:08:46.569Z,15.20
2018-09-27T03:11:14.778Z,15.10
2018-09-27T03:13:42.397Z,15.10
2018-09-27T03:16:11.036Z,15.10
2018-09-27T03:18:38.681Z,15.00
2018-09-27T03:21:07.036Z,15.00
2018-09-27T03:23:41.502Z,15.00
2018-09-27T03:26:09.196Z,15.00
2018-09-27T03:28:36.915Z,15.00
2018-09-27T03:31:04.963Z,14.90
2018-09-27T03:33:32.714Z,14.90
2018-09-27T03:36:00.402Z,14.80
2018-09-27T03:38:28.263Z,14.80
2018-09-27T03:40:56.006Z,14.80
2018-09-27T03:43:23.606Z,14.70
2018-09-27T03:45:51.354Z,14.70
2018-09-27T03:48:19.010Z,14.80
2018-09-27T03:50:46.687Z,14.80
2018-09-27T03:53:14.384Z,14.80
2018-09-27T03:55:42.195Z,14.80
2018-09-27T03:58:10.328Z,14.80
2018-09-27T04:00:38.526Z,14.90
2018-09-27T04:03:06.375Z,14.90
2018-09-27T04:05:34.044Z,14.80
2018-09-27T04:08:01.726Z,14.80
2018-09-27T04:10:29.397Z,14.80
2018-09-27T04:12:57.167Z,14.70
2018-09-27T04:15:24.829Z,14.70
2018-09-27T04:17:52.731Z,14.70
2018-09-27T04:20:20.353Z,14.80
2018-09-27T04:22:48.363Z,14.80
2018-09-27T04:25:16.025Z,14.80
2018-09-27T04:27:43.761Z,14.70
2018-09-27T04:30:11.699Z,14.70
2018-09-27T04:32:39.447Z,14.70
2018-09-27T04:35:07.397Z,14.60
2018-09-27T04:37:35.053Z,14.60
2018-09-27T04:40:02.721Z,14.70
2018-09-27T04:42:30.538Z,14.70
2018-09-27T04:44:58.691Z,14.70
2018-09-27T04:47:26.423Z,14.70
2018-09-27T04:49:54.129Z,14.70
2018-09-27T04:52:21.760Z,14.70
2018-09-27T04:54:49.432Z,14.70
2018-09-27T04:57:17.400Z,14.60
2018-09-27T04:59:45.103Z,14.60
2018-09-27T05:02:12.964Z,14.60
2018-09-27T05:04:40.617Z,14.60
2018-09-27T05:07:08.839Z,14.70
2018-09-27T05:09:36.606Z,14.70
2018-09-27T05:12:04.309Z,14.60
2018-09-27T05:14:32.302Z,14.60
2018-09-27T05:16:59.944Z,14.60
2018-09-27T05:19:27.665Z,14.60
2018-09-27T05:21:55.905Z,14.60
2018-09-27T05:24:23.774Z,14.70
2018-09-27T05:26:51.869Z,14.70
2018-09-27T05:29:20.212Z,14.70
2018-09-27T05:31:47.900Z,14.60
2018-09-27T05:34:15.615Z,14.60
2018-09-27T05:36:43.331Z,14.70
2018-09-27T05:39:11.874Z,14.70
2018-09-27T05:41:39.565Z,14.70
2018-09-27T05:44:08.053Z,14.70
2018-09-27T05:46:35.711Z,14.70
2018-09-27T05:49:03.428Z,14.70
2018-09-27T05:51:31.223Z,14.80
2018-09-27T05:53:58.795Z,14.80
2018-09-27T05:56:26.658Z,14.70
2018-09-27T05:58:54.256Z,14.70
2018-09-27T06:01:21.996Z,14.70
2018-09-27T06:03:49.718Z,14.70
2018-09-27T06:06:17.378Z,14.80
2018-09-27T06:08:45.086Z,14.80
2018-09-27T06:11:12.799Z,14.70
2018-09-27T06:13:40.506Z,14.80
2018-09-27T06:16:08.433Z,14.80
2018-09-27T06:18:36.124Z,14.70
2018-09-27T06:21:04.796Z,14.70
2018-09-27T06:23:32.448Z,14.70
2018-09-27T06:26:00.142Z,14.70
2018-09-27T06:28:27.767Z,14.80
2018-09-27T06:30:55.471Z,14.90
2018-09-27T06:33:23.164Z,14.90
2018-09-27T06:35:50.811Z,14.90
2018-09-27T06:38:18.666Z,14.90
2018-09-27T06:40:46.385Z,14.90
2018-09-27T06:43:14.863Z,14.90
2018-09-27T06:45:43.927Z,14.90
2018-09-27T06:48:11.628Z,14.90
2018-09-27T06:50:40.437Z,14.90
2018-09-27T06:53:08.087Z,14.90
2018-09-27T06:55:35.857Z,14.90
2018-09-27T06:58:03.381Z,15.00
2018-09-27T07:00:31.323Z,15.00
2018-09-27T07:03:00.118Z,15.00
2018-09-27T07:05:29.104Z,15.10
2018-09-27T07:07:57.711Z,15.20
2018-09-27T07:10:25.495Z,15.20
2018-09-27T07:12:53.242Z,15.30
2018-09-27T07:15:21.826Z,15.40
2018-09-27T07:17:49.535Z,15.40
2018-09-27T07:20:17.274Z,15.50
2018-09-27T07:22:45.043Z,15.60
2018-09-27T07:25:13.968Z,15.70
2018-09-27T07:27:41.741Z,15.50
2018-09-27T07:30:09.521Z,15.70
2018-09-27T07:32:37.315Z,15.70
2018-09-27T07:35:05.087Z,15.60
2018-09-27T07:37:32.920Z,16.00
2018-09-27T07:40:00.703Z,16.00
2018-09-27T07:42:28.655Z,16.10
2018-09-27T07:45:00.288Z,16.10
2018-09-27T07:47:28.318Z,16.00
2018-09-27T07:49:55.978Z,15.90
2018-09-27T07:52:23.693Z,15.90
2018-09-27T07:54:51.461Z,15.90
2018-09-27T07:57:25.401Z,16.00
2018-09-27T07:59:53.700Z,16.20
2018-09-27T08:02:23.607Z,16.40
2018-09-27T08:04:55.111Z,16.40
2018-09-27T08:07:22.831Z,16.40
2018-09-27T08:09:50.685Z,16.60
2018-09-27T08:12:18.495Z,16.80
2018-09-27T08:14:46.240Z,17.00
2018-09-27T08:17:13.977Z,16.90
2018-09-27T08:19:41.714Z,17.20
2018-09-27T08:22:09.901Z,17.30
2018-09-27T08:24:37.566Z,17.30
2018-09-27T08:27:05.310Z,17.40
2018-09-27T08:29:32.971Z,17.40
2018-09-27T08:32:00.937Z,17.50
2018-09-27T08:34:28.944Z,17.80
2018-09-27T08:36:56.648Z,17.50
2018-09-27T08:39:24.341Z,17.20
2018-09-27T08:41:52.044Z,17.60
2018-09-27T08:44:19.715Z,17.60
2018-09-27T08:46:47.395Z,17.20
2018-09-27T08:49:16.223Z,17.40
2018-09-27T08:51:44.093Z,17.50
2018-09-27T08:54:11.802Z,17.30
2018-09-27T08:56:39.475Z,17.30
2018-09-27T08:59:08.236Z,17.30
2018-09-27T09:01:36.074Z,17.40
2018-09-27T09:04:03.795Z,17.50
2018-09-27T09:06:31.527Z,17.40
2018-09-27T09:08:59.348Z,17.60
2018-09-27T09:11:27.030Z,17.80
2018-09-27T09:13:54.682Z,18.30
2018-09-27T09:16:22.374Z,18.50
2018-09-27T09:18:50.046Z,18.30
2018-09-27T09:21:17.747Z,18.20
2018-09-27T09:23:45.462Z,18.30
2018-09-27T09:26:13.176Z,18.10
2018-09-27T09:28:40.936Z,18.30
2018-09-27T09:31:08.747Z,18.20
2018-09-27T09:33:36.495Z,18.30
2018-09-27T09:36:04.187Z,18.30
2018-09-27T09:38:31.743Z,18.30
2018-09-27T09:40:59.731Z,18.50
2018-09-27T09:43:27.485Z,18.70
2018-09-27T09:45:55.177Z,18.30
2018-09-27T09:48:22.899Z,18.20
2018-09-27T09:50:50.593Z,18.40
2018-09-27T09:53:18.352Z,18.30
2018-09-27T09:55:46.049Z,18.30
2018-09-27T09:58:13.813Z,18.30
2018-09-27T10:00:41.460Z,18.60
2018-09-27T10:03:09.276Z,18.90
2018-09-27T10:05:36.961Z,18.80
2018-09-27T10:08:04.935Z,18.50
2018-09-27T10:10:32.646Z,19.00
2018-09-27T10:13:00.386Z,19.40
2018-09-27T10:15:28.059Z,19.20
2018-09-27T10:17:55.885Z,19.30
2018-09-27T10:20:23.550Z,19.30
2018-09-27T10:22:51.197Z,19.20
2018-09-27T10:25:19.000Z,19.20
2018-09-27T10:27:46.690Z,19.60
2018-09-27T10:30:14.644Z,19.90
2018-09-27T10:32:42.414Z,20.60
2018-09-27T10:35:10.152Z,21.00
2018-09-27T10:37:37.770Z,20.80
2018-09-27T10:40:05.724Z,20.20
2018-09-27T10:42:33.581Z,20.50
2018-09-27T10:45:01.115Z,21.00
2018-09-27T10:47:28.757Z,21.40
2018-09-27T10:49:56.554Z,21.80
2018-09-27T10:52:24.210Z,21.80
2018-09-27T10:54:51.903Z,22.40
2018-09-27T10:57:20.218Z,21.90
2018-09-27T10:59:48.308Z,22.20
2018-09-27T11:02:15.973Z,23.10
2018-09-27T11:04:44.129Z,23.20
2018-09-27T11:07:11.723Z,22.70
2018-09-27T11:09:39.461Z,21.70
2018-09-27T11:12:07.121Z,21.60
2018-09-27T11:14:34.797Z,22.40
2018-09-27T11:17:02.445Z,21.80
2018-09-27T11:19:30.103Z,22.00
2018-09-27T11:21:57.848Z,22.50
2018-09-27T11:24:25.561Z,21.70
2018-09-27T11:26:53.249Z,21.40
2018-09-27T11:29:26.970Z,21.80
2018-09-27T11:32:00.447Z,22.90
2018-09-27T11:34:28.108Z,23.50
2018-09-27T11:36:55.787Z,25.00
2018-09-27T11:39:23.447Z,26.20
2018-09-27T11:41:51.227Z,25.80
2018-09-27T11:44:18.895Z,26.00
2018-09-27T11:46:46.519Z,26.20
2018-09-27T11:49:14.381Z,25.50
2018-09-27T11:51:41.921Z,25.10
2018-09-27T11:54:09.574Z,26.10
2018-09-27T11:56:37.237Z,27.90
2018-09-27T11:59:04.951Z,28.50
2018-09-27T12:01:32.607Z,29.50
2018-09-27T12:04:00.182Z,30.70
2018-09-27T12:06:27.877Z,31.20
2018-09-27T12:08:55.444Z,30.60
2018-09-27T12:11:23.119Z,30.10
2018-09-27T12:13:50.778Z,30.60
2018-09-27T12:16:18.542Z,31.40
2018-09-27T12:18:46.307Z,31.00
2018-09-27T12:21:13.975Z,32.40
2018-09-27T12:23:42.145Z,34.80
2018-09-27T12:26:09.908Z,34.00
2018-09-27T12:28:37.976Z,34.40
2018-09-27T12:31:05.796Z,33.20
2018-09-27T12:33:33.444Z,34.60
2018-09-27T12:36:01.140Z,33.70
2018-09-27T12:38:28.857Z,34.80
2018-09-27T12:40:56.416Z,34.70
2018-09-27T12:43:24.063Z,35.60
2018-09-27T12:45:51.705Z,34.30
2018-09-27T12:48:19.440Z,33.90
2018-09-27T12:50:47.025Z,32.70
2018-09-27T12:53:14.764Z,32.40
2018-09-27T12:55:42.416Z,33.40
2018-09-27T12:58:10.039Z,33.50
2018-09-27T13:00:37.726Z,34.80
2018-09-27T13:03:05.393Z,34.10
2018-09-27T13:05:33.105Z,33.10
2018-09-27T13:08:00.779Z,33.90
2018-09-27T13:10:28.454Z,34.60
2018-09-27T13:12:56.119Z,35.00
2018-09-27T13:15:23.782Z,33.90
2018-09-27T13:17:51.426Z,33.30
2018-09-27T13:20:19.170Z,33.00
2018-09-27T13:22:46.733Z,34.40
2018-09-27T13:25:14.391Z,32.30
2018-09-27T13:27:42.019Z,34.10
2018-09-27T13:30:09.775Z,35.60
2018-09-27T13:32:37.413Z,36.60
2018-09-27T13:35:05.185Z,36.00
2018-09-27T13:37:32.765Z,35.90
2018-09-27T13:40:00.412Z,35.80
2018-09-27T13:42:28.019Z,36.10
2018-09-27T13:44:55.706Z,35.30
2018-09-27T13:47:23.376Z,33.90
2018-09-27T13:49:51.284Z,36.60
2018-09-27T13:52:18.938Z,36.40
2018-09-27T13:54:46.532Z,36.50
2018-09-27T13:57:14.225Z,36.00
2018-09-27T13:59:41.793Z,33.70
2018-09-27T14:02:09.448Z,35.40
2018-09-27T14:04:37.077Z,36.90
2018-09-27T14:07:04.819Z,37.40
2018-09-27T14:09:32.418Z,36.50
2018-09-27T14:12:00.043Z,36.30
2018-09-27T14:14:27.749Z,37.80
2018-09-27T14:16:55.431Z,37.90
2018-09-27T14:19:23.142Z,36.70
2018-09-27T14:21:50.818Z,36.60
2018-09-27T14:24:18.462Z,38.70
2018-09-27T14:26:46.122Z,39.60
2018-09-27T14:29:13.933Z,39.60
2018-09-27T14:31:41.672Z,39.30
2018-09-27T14:34:09.325Z,39.20
2018-09-27T14:36:37.061Z,38.80
2018-09-27T14:39:07.720Z,39.90
2018-09-27T14:41:35.436Z,39.30
2018-09-27T14:44:03.081Z,39.40
2018-09-27T14:46:30.773Z,40.00
2018-09-27T14:48:58.478Z,39.00
2018-09-27T14:51:26.407Z,39.10
2018-09-27T14:53:54.088Z,38.50
2018-09-27T14:56:21.788Z,38.80
2018-09-27T14:58:49.290Z,39.30
2018-09-27T15:01:16.890Z,39.40
2018-09-27T15:03:44.550Z,38.80
2018-09-27T15:06:12.186Z,38.90
2018-09-27T15:08:39.903Z,38.90
2018-09-27T15:11:07.561Z,38.90
2018-09-27T15:13:35.261Z,38.50
2018-09-27T15:16:03.048Z,38.80
2018-09-27T15:18:30.649Z,38.30
2018-09-27T15:20:58.235Z,38.30
2018-09-27T15:23:25.934Z,39.30
2018-09-27T15:25:53.575Z,39.10
2018-09-27T15:28:21.207Z,38.50
2018-09-27T15:30:48.973Z,38.00
2018-09-27T15:33:16.702Z,37.60
2018-09-27T15:35:44.265Z,36.00
2018-09-27T15:38:12.014Z,34.00
2018-09-27T15:40:39.716Z,33.60
2018-09-27T15:43:07.358Z,32.30
2018-09-27T15:45:35.139Z,30.80
2018-09-27T15:48:02.741Z,29.60
2018-09-27T15:50:30.324Z,28.70
2018-09-27T15:52:57.918Z,27.80
2018-09-27T15:55:25.505Z,26.90
2018-09-27T15:57:53.392Z,26.20
2018-09-27T16:00:21.072Z,25.60
2018-09-27T16:02:48.754Z,25.20
2018-09-27T16:05:16.461Z,25.10
2018-09-27T16:07:44.266Z,24.80
2018-09-27T16:10:12.052Z,24.50
2018-09-27T16:12:39.737Z,24.50
2018-09-27T16:15:07.371Z,24.30
2018-09-27T16:17:35.158Z,23.90
2018-09-27T16:20:02.911Z,23.80
2018-09-27T16:22:30.559Z,23.40
2018-09-27T16:24:58.219Z,23.10
2018-09-27T16:27:26.170Z,22.80
2018-09-27T16:29:53.970Z,22.70
2018-09-27T16:32:21.630Z,22.50
2018-09-27T16:34:49.727Z,22.20
2018-09-27T16:37:17.343Z,21.90
2018-09-27T16:39:45.091Z,21.80
2018-09-27T16:42:12.672Z,21.60
2018-09-27T16:44:40.243Z,21.40
2018-09-27T16:47:08.007Z,21.20
2018-09-27T16:49:35.652Z,21.10
2018-09-27T16:52:03.330Z,21.00
2018-09-27T16:54:30.997Z,21.00
2018-09-27T16:56:58.688Z,20.90
2018-09-27T16:59:26.275Z,20.80
2018-09-27T17:01:53.974Z,20.70
2018-09-27T17:04:21.728Z,20.60
2018-09-27T17:06:49.546Z,20.50
2018-09-27T17:09:17.209Z,20.40
2018-09-27T17:11:44.799Z,20.40
2018-09-27T17:14:12.429Z,20.30
2018-09-27T17:16:40.187Z,20.20
2018-09-27T17:19:07.985Z,20.10
2018-09-27T17:21:35.611Z,20.00
2018-09-27T17:24:03.360Z,19.90
2018-09-27T17:26:30.983Z,19.90
2018-09-27T17:28:58.655Z,19.80
2018-09-27T17:31:30.688Z,19.80
2018-09-27T17:33:58.499Z,19.60
2018-09-27T17:36:26.161Z,19.50
2018-09-27T17:38:53.998Z,19.40
2018-09-27T17:41:21.729Z,19.40
2018-09-27T17:43:49.381Z,19.20
2018-09-27T17:46:18.015Z,19.20
2018-09-27T17:48:45.705Z,19.10
2018-09-27T17:51:13.387Z,19.00
2018-09-27T17:53:41.248Z,19.00
2018-09-27T17:56:09.028Z,18.90
2018-09-27T17:58:37.007Z,18.80
2018-09-27T18:01:04.821Z,18.80
2018-09-27T18:03:32.590Z,18.70
2018-09-27T18:06:00.473Z,18.60
2018-09-27T18:08:28.499Z,18.60
2018-09-27T18:10:56.328Z,18.50
2018-09-27T18:13:25.338Z,18.40
2018-09-27T18:15:53.166Z,18.30
2018-09-27T18:18:20.982Z,18.20
2018-09-27T18:20:48.712Z,18.10
2018-09-27T18:23:16.428Z,18.10
2018-09-27T18:25:44.902Z,17.80
2018-09-27T18:28:12.569Z,17.70
2018-09-27T18:30:40.347Z,17.70
2018-09-27T18:33:08.248Z,17.70
2018-09-27T18:35:35.954Z,17.70
2018-09-27T18:38:03.939Z,17.60
2018-09-27T18:40:31.654Z,17.40
2018-09-27T18:42:59.467Z,17.40
2018-09-27T18:45:27.286Z,17.30
2018-09-27T18:47:55.160Z,17.20
2018-09-27T18:50:22.986Z,17.00
2018-09-27T18:52:51.168Z,16.90
2018-09-27T18:55:19.124Z,16.90
2018-09-27T18:57:47.322Z,16.80
2018-09-27T19:00:15.110Z,16.80
2018-09-27T19:02:42.832Z,16.70
2018-09-27T19:05:10.568Z,16.70
2018-09-27T19:07:38.336Z,16.70
2018-09-27T19:10:06.059Z,16.60
2018-09-27T19:12:33.783Z,16.50
2018-09-27T19:15:01.528Z,16.50
2018-09-27T19:17:29.202Z,16.40
2018-09-27T19:19:56.989Z,16.40
2018-09-27T19:22:24.694Z,16.30
2018-09-27T19:24:52.462Z,16.30
2018-09-27T19:27:20.121Z,16.20
2018-09-27T19:29:47.890Z,16.20
2018-09-27T19:32:15.604Z,16.10
2018-09-27T19:34:43.217Z,16.10
2018-09-27T19:37:10.944Z,16.00
2018-09-27T19:39:38.704Z,15.90
2018-09-27T19:42:06.412Z,15.90
2018-09-27T19:44:34.181Z,15.80
2018-09-27T19:47:01.822Z,15.80
2018-09-27T19:49:29.647Z,15.70
2018-09-27T19:51:57.447Z,15.60
2018-09-27T19:54:25.065Z,15.50
2018-09-27T19:56:52.815Z,15.50
2018-09-27T19:59:20.491Z,15.50
2018-09-27T20:01:48.659Z,15.40
2018-09-27T20:04:16.908Z,15.40
2018-09-27T20:06:44.691Z,15.40
2018-09-27T20:09:13.359Z,15.40
2018-09-27T20:11:41.537Z,15.40
2018-09-27T20:14:09.615Z,15.40
2018-09-27T20:16:37.486Z,15.40
2018-09-27T20:19:05.311Z,15.40
2018-09-27T20:21:32.978Z,15.40
2018-09-27T20:24:00.672Z,15.50
2018-09-27T20:26:28.381Z,15.40
2018-09-27T20:28:56.032Z,15.40
2018-09-27T20:31:23.764Z,15.40
2018-09-27T20:33:51.586Z,15.40
2018-09-27T20:36:19.248Z,15.30
2018-09-27T20:38:46.944Z,15.30
2018-09-27T20:41:14.620Z,15.30
2018-09-27T20:43:42.318Z,15.20
2018-09-27T20:46:09.925Z,15.20
2018-09-27T20:48:37.570Z,15.20
2018-09-27T20:51:05.340Z,15.20
2018-09-27T20:53:33.014Z,15.10
2018-09-27T20:56:00.730Z,15.10
2018-09-27T20:58:28.377Z,15.00
2018-09-27T21:00:56.097Z,14.90
2018-09-27T21:03:23.813Z,14.90
2018-09-27T21:05:51.557Z,14.80
2018-09-27T21:08:19.327Z,14.70
2018-09-27T21:10:46.941Z,14.60
2018-09-27T21:13:14.639Z,14.60
2018-09-27T21:15:42.375Z,14.60
2018-09-27T21:18:10.075Z,14.60
2018-09-27T21:20:37.849Z,14.60
2018-09-27T21:23:05.609Z,14.40
2018-09-27T21:25:33.311Z,14.40
2018-09-27T21:28:00.992Z,14.30
2018-09-27T21:30:28.805Z,14.30
2018-09-27T21:32:56.453Z,14.20
2018-09-27T21:35:24.108Z,14.10
2018-09-27T21:37:51.959Z,14.00
2018-09-27T21:40:19.652Z,13.90
2018-09-27T21:42:47.282Z,13.80
2018-09-27T21:45:14.890Z,13.80
2018-09-27T21:47:42.537Z,13.80
2018-09-27T21:50:10.321Z,13.70
2018-09-27T21:52:37.854Z,13.70
2018-09-27T21:55:05.506Z,13.60
2018-09-27T21:57:33.068Z,13.60
2018-09-27T22:00:00.680Z,13.60
2018-09-27T22:02:28.314Z,13.60
2018-09-27T22:04:56.045Z,13.60
2018-09-27T22:07:25.529Z,13.60
2018-09-27T22:09:54.568Z,13.50
2018-09-27T22:12:22.220Z,13.50
2018-09-27T22:14:49.901Z,13.40
2018-09-27T22:17:17.576Z,13.40
2018-09-27T22:19:45.231Z,13.20
2018-09-27T22:22:12.908Z,13.20
2018-09-27T22:24:40.542Z,13.20
2018-09-27T22:27:08.318Z,13.20
2018-09-27T22:29:35.908Z,13.20
2018-09-27T22:32:03.595Z,13.20
2018-09-27T22:34:31.213Z,13.20
2018-09-27T22:36:58.848Z,13.00
2018-09-27T22:39:26.420Z,13.00
2018-09-27T22:41:54.076Z,13.00
2018-09-27T22:44:22.028Z,13.10
2018-09-27T22:46:49.657Z,13.10
2018-09-27T22:49:17.584Z,13.00
2018-09-27T22:51:45.259Z,13.00
2018-09-27T22:54:13.413Z,12.90
2018-09-27T22:56:41.073Z,12.70
2018-09-27T22:59:09.003Z,12.70
2018-09-27T23:01:36.650Z,12.60
2018-09-27T23:04:04.429Z,12.60
2018-09-27T23:06:32.804Z,12.60
2018-09-27T23:09:00.405Z,12.60
2018-09-27T23:11:32.385Z,12.60
2018-09-27T23:14:01.398Z,12.60
2018-09-27T23:16:29.162Z,12.50
2018-09-27T23:18:56.785Z,12.40
2018-09-27T23:21:24.376Z,12.40
2018-09-27T23:23:52.584Z,12.40
2018-09-27T23:26:20.278Z,12.30
2018-09-27T23:28:47.908Z,12.30
2018-09-27T23:31:15.541Z,12.30
2018-09-27T23:33:43.217Z,12.20
2018-09-27T23:36:11.155Z,12.20
2018-09-27T23:38:38.799Z,12.20
2018-09-27T23:41:06.564Z,12.10
2018-09-27T23:43:34.257Z,12.00
2018-09-27T23:46:01.845Z,11.90
2018-09-27T23:48:29.412Z,11.90
2018-09-27T23:50:57.077Z,11.80
2018-09-27T23:53:24.674Z,11.80
2018-09-27T23:55:52.558Z,11.80
2018-09-27T23:58:20.153Z,11.70
